createdAt,value
2018-04-18T00:01:31.826Z,11.60
2018-04-18T00:03:59.289Z,11.50
2018-04-18T01:20:54.859Z,10.70
2018-04-18T01:23:22.330Z,10.70
2018-04-18T01:25:49.818Z,10.60
2018-04-18T01:28:17.298Z,10.60
2018-04-18T01:30:45.534Z,10.50
2018-04-18T01:33:13.006Z,10.50
2018-04-18T01:35:41.986Z,10.40
2018-04-18T01:38:09.681Z,10.40
2018-04-18T01:40:37.163Z,10.40
2018-04-18T01:43:04.628Z,10.40
2018-04-18T01:45:32.868Z,10.30
2018-04-18T01:48:00.340Z,10.30
2018-04-18T01:50:27.800Z,10.30
2018-04-18T01:52:55.267Z,10.20
2018-04-18T01:55:22.757Z,10.20
2018-04-18T01:57:50.224Z,10.20
2018-04-18T02:00:18.463Z,10.20
2018-04-18T02:02:45.931Z,10.20
2018-04-18T02:05:13.398Z,10.20
2018-04-18T02:07:40.867Z,10.10
2018-04-18T02:10:08.356Z,10.10
2018-04-18T02:12:35.824Z,10.10
2018-04-18T02:15:03.300Z,10.10
2018-04-18T02:17:31.534Z,10.00
2018-04-18T02:19:59.004Z,10.00
2018-04-18T02:22:26.496Z,10.00
2018-04-18T02:24:53.964Z,10.00
2018-04-18T02:27:22.204Z,9.90
2018-04-18T02:29:49.651Z,9.90
2018-04-18T02:32:17.115Z,9.90
2018-04-18T02:34:44.600Z,9.90
2018-04-18T02:37:12.058Z,9.90
2018-04-18T02:39:39.525Z,9.90
2018-04-18T02:42:06.990Z,9.90
2018-04-18T02:44:34.443Z,9.90
2018-04-18T02:47:01.901Z,9.90
2018-04-18T02:49:29.367Z,9.90
2018-04-18T02:51:56.845Z,9.80
2018-04-18T02:54:24.305Z,9.80
2018-04-18T02:56:51.768Z,9.80
2018-04-18T02:59:19.235Z,9.80
2018-04-18T03:01:46.704Z,9.80
2018-04-18T03:04:14.195Z,9.80
2018-04-18T03:06:42.414Z,9.80
2018-04-18T03:09:09.901Z,9.80
2018-04-18T03:11:37.368Z,9.70
2018-04-18T03:14:04.836Z,9.70
2018-04-18T03:16:32.296Z,9.70
2018-04-18T03:18:59.748Z,9.60
2018-04-18T03:21:27.221Z,9.60
2018-04-18T03:23:54.691Z,9.60
2018-04-18T03:26:22.157Z,9.60
2018-04-18T03:28:49.617Z,9.50
2018-04-18T03:31:17.078Z,9.50
2018-04-18T03:33:45.342Z,9.50
2018-04-18T03:36:12.779Z,9.40
2018-04-18T03:38:40.252Z,9.40
2018-04-18T03:41:07.723Z,9.40
2018-04-18T03:43:35.195Z,9.40
2018-04-18T03:46:02.664Z,9.30
2018-04-18T03:48:30.130Z,9.30
2018-04-18T03:50:57.597Z,9.30
2018-04-18T03:53:25.058Z,9.30
2018-04-18T03:55:52.545Z,9.30
2018-04-18T03:58:20.009Z,9.20
2018-04-18T04:00:47.471Z,9.20
2018-04-18T04:03:14.941Z,9.20
2018-04-18T04:05:42.400Z,9.20
2018-04-18T04:08:09.867Z,9.20
2018-04-18T04:10:37.326Z,9.10
2018-04-18T04:13:05.573Z,9.10
2018-04-18T04:15:33.039Z,9.00
2018-04-18T04:18:12.325Z,9.10
2018-04-18T04:20:52.427Z,9.00
2018-04-18T04:23:31.794Z,9.00
2018-04-18T04:25:59.234Z,9.00
2018-04-18T04:28:27.543Z,9.00
2018-04-18T04:30:55.019Z,9.00
2018-04-18T04:33:23.253Z,9.00
2018-04-18T04:35:51.486Z,9.00
2018-04-18T04:38:19.718Z,8.90
2018-04-18T04:40:47.210Z,8.90
2018-04-18T04:43:14.677Z,8.90
2018-04-18T04:45:42.150Z,8.90
2018-04-18T04:48:10.394Z,8.90
2018-04-18T04:50:37.863Z,8.90
2018-04-18T04:53:05.326Z,8.90
2018-04-18T04:55:32.799Z,9.00
2018-04-18T04:58:00.275Z,9.00
2018-04-18T05:00:27.760Z,8.90
2018-04-18T05:02:55.972Z,9.00
2018-04-18T05:05:23.432Z,8.90
2018-04-18T05:07:50.896Z,9.00
2018-04-18T05:10:18.398Z,9.00
2018-04-18T05:12:45.863Z,9.00
2018-04-18T05:15:13.327Z,9.00
2018-04-18T05:17:40.809Z,9.00
2018-04-18T05:20:08.272Z,9.00
2018-04-18T05:22:35.728Z,9.00
2018-04-18T05:25:03.197Z,9.00
2018-04-18T05:27:30.686Z,9.10
2018-04-18T05:29:58.166Z,9.10
2018-04-18T05:32:25.635Z,9.20
2018-04-18T05:34:53.113Z,9.20
2018-04-18T05:37:20.579Z,9.20
2018-04-18T05:39:48.049Z,9.40
2018-04-18T05:42:15.511Z,9.40
2018-04-18T05:44:43.013Z,9.50
2018-04-18T05:47:11.255Z,9.60
2018-04-18T05:49:38.731Z,9.60
2018-04-18T05:52:06.193Z,9.60
2018-04-18T05:54:33.657Z,9.70
2018-04-18T05:57:01.137Z,9.70
2018-04-18T05:59:28.601Z,9.80
2018-04-18T06:01:56.073Z,9.80
2018-04-18T06:04:23.533Z,9.90
2018-04-18T06:06:51.005Z,10.00
2018-04-18T06:09:19.261Z,10.20
2018-04-18T06:11:46.733Z,10.20
2018-04-18T06:14:14.207Z,10.30
2018-04-18T06:16:41.673Z,10.40
2018-04-18T06:19:09.922Z,10.70
2018-04-18T06:21:37.386Z,10.60
2018-04-18T06:24:05.624Z,11.00
2018-04-18T06:26:33.094Z,10.90
2018-04-18T06:29:00.565Z,11.10
2018-04-18T06:31:28.055Z,11.20
2018-04-18T06:33:55.517Z,11.40
2018-04-18T06:36:22.987Z,11.60
2018-04-18T06:38:50.465Z,11.70
2018-04-18T06:41:17.937Z,11.90
2018-04-18T06:43:45.408Z,12.10
2018-04-18T06:46:12.873Z,12.30
2018-04-18T06:48:40.367Z,12.50
2018-04-18T06:51:07.851Z,12.70
2018-04-18T06:53:35.309Z,12.70
2018-04-18T06:56:02.790Z,12.90
2018-04-18T06:58:30.258Z,13.00
2018-04-18T07:00:57.730Z,13.10
2018-04-18T07:03:25.185Z,13.20
2018-04-18T07:05:52.666Z,13.50
2018-04-18T07:08:20.138Z,13.50
2018-04-18T07:10:47.611Z,13.70
2018-04-18T07:13:15.079Z,13.90
2018-04-18T07:15:43.318Z,14.20
2018-04-18T07:18:10.787Z,14.20
2018-04-18T07:20:38.253Z,14.40
2018-04-18T07:23:05.715Z,14.50
2018-04-18T07:25:33.185Z,14.70
2018-04-18T07:28:00.674Z,14.80
2018-04-18T07:30:28.120Z,14.90
2018-04-18T07:32:55.605Z,15.10
2018-04-18T07:35:23.069Z,15.20
2018-04-18T07:37:51.297Z,15.50
2018-04-18T07:40:18.764Z,15.50
2018-04-18T07:42:46.218Z,15.60
2018-04-18T07:45:13.704Z,15.80
2018-04-18T07:47:41.175Z,15.90
2018-04-18T07:50:08.633Z,16.00
2018-04-18T07:52:36.103Z,16.10
2018-04-18T07:55:03.570Z,16.20
2018-04-18T07:57:31.052Z,16.30
2018-04-18T07:59:58.529Z,16.50
2018-04-18T08:02:26.768Z,16.80
2018-04-18T08:04:54.231Z,16.80
2018-04-18T08:07:21.701Z,16.90
2018-04-18T08:09:49.173Z,17.10
2018-04-18T08:12:16.634Z,17.20
2018-04-18T08:14:44.126Z,17.40
2018-04-18T08:17:12.381Z,17.50
2018-04-18T08:19:39.847Z,17.60
2018-04-18T08:22:07.314Z,17.70
2018-04-18T08:24:34.802Z,17.80
2018-04-18T08:27:03.065Z,18.00
2018-04-18T08:29:30.524Z,18.00
2018-04-18T08:31:57.982Z,18.10
2018-04-18T08:34:25.448Z,18.20
2018-04-18T08:36:52.921Z,18.20
2018-04-18T08:39:20.396Z,18.40
2018-04-18T08:41:48.619Z,18.60
2018-04-18T08:44:16.097Z,18.50
2018-04-18T08:46:43.553Z,18.60
2018-04-18T08:49:11.015Z,18.80
2018-04-18T08:51:38.517Z,18.80
2018-04-18T08:54:05.994Z,18.90
2018-04-18T08:56:34.235Z,19.10
2018-04-18T08:59:01.697Z,19.10
2018-04-18T09:01:30.105Z,19.20
2018-04-18T09:03:57.566Z,19.30
2018-04-18T09:06:25.024Z,19.40
2018-04-18T09:08:52.502Z,19.40
2018-04-18T09:11:19.958Z,19.50
2018-04-18T09:13:47.440Z,19.60
2018-04-18T09:16:15.671Z,19.80
2018-04-18T09:18:43.134Z,19.80
2018-04-18T09:21:10.608Z,19.90
2018-04-18T09:23:38.071Z,20.00
2018-04-18T09:26:05.548Z,20.00
2018-04-18T09:28:33.060Z,20.10
2018-04-18T09:31:00.502Z,20.20
2018-04-18T09:33:28.761Z,20.30
2018-04-18T09:35:56.248Z,20.30
2018-04-18T09:38:24.483Z,20.50
2018-04-18T09:40:51.961Z,20.50
2018-04-18T09:43:19.439Z,20.60
2018-04-18T09:45:47.678Z,20.70
2018-04-18T09:48:15.186Z,20.70
2018-04-18T09:50:42.753Z,20.80
2018-04-18T09:53:10.217Z,20.90
2018-04-18T09:55:37.681Z,21.00
2018-04-18T09:58:05.235Z,21.00
2018-04-18T10:00:38.308Z,21.00
2018-04-18T10:03:05.784Z,21.10
2018-04-18T10:05:33.241Z,21.10
2018-04-18T10:08:00.703Z,21.10
2018-04-18T10:10:28.172Z,21.30
2018-04-18T10:12:55.663Z,21.30
2018-04-18T10:15:23.138Z,21.30
2018-04-18T10:17:51.368Z,21.40
2018-04-18T10:20:18.833Z,21.40
2018-04-18T10:22:46.323Z,21.50
2018-04-18T10:25:13.769Z,21.50
2018-04-18T10:27:41.269Z,21.60
2018-04-18T10:30:09.505Z,21.60
2018-04-18T10:32:37.009Z,21.60
2018-04-18T10:35:05.216Z,21.60
2018-04-18T10:37:32.680Z,21.60
2018-04-18T10:40:00.168Z,21.60
2018-04-18T10:42:27.658Z,21.60
2018-04-18T10:44:55.119Z,21.70
2018-04-18T10:47:22.588Z,21.70
2018-04-18T10:49:50.064Z,21.70
2018-04-18T10:52:17.554Z,21.80
2018-04-18T10:54:45.031Z,21.80
2018-04-18T10:57:12.493Z,22.00
2018-04-18T10:59:39.960Z,21.90
2018-04-18T11:02:07.429Z,21.90
2018-04-18T11:04:34.907Z,22.00
2018-04-18T11:07:02.382Z,22.10
2018-04-18T11:09:29.849Z,22.10
2018-04-18T11:11:57.333Z,22.20
2018-04-18T11:16:59.509Z,22.20
2018-04-18T11:19:27.745Z,22.20
2018-04-18T11:21:55.207Z,22.30
2018-04-18T11:24:22.659Z,22.40
2018-04-18T11:26:50.891Z,22.50
2018-04-18T11:29:18.391Z,22.50
2018-04-18T11:31:46.626Z,22.70
2018-04-18T11:34:14.086Z,22.60
2018-04-18T11:36:41.562Z,22.70
2018-04-18T11:39:09.035Z,22.60
2018-04-18T11:41:36.536Z,22.70
2018-04-18T11:44:04.774Z,22.80
2018-04-18T11:46:32.236Z,22.80
2018-04-18T11:48:59.773Z,22.80
2018-04-18T11:51:27.244Z,22.70
2018-04-18T11:53:54.716Z,22.80
2018-04-18T11:56:22.182Z,22.90
2018-04-18T11:58:49.660Z,23.00
2018-04-18T12:01:17.134Z,23.00
2018-04-18T12:03:44.594Z,23.30
2018-04-18T12:06:12.090Z,23.00
2018-04-18T12:08:40.315Z,23.10
2018-04-18T12:11:07.776Z,23.00
2018-04-18T12:13:36.005Z,23.20
2018-04-18T12:16:04.233Z,23.20
2018-04-18T12:18:31.728Z,23.20
2018-04-18T12:20:59.207Z,23.30
2018-04-18T12:23:26.674Z,23.30
2018-04-18T12:25:54.137Z,23.20
2018-04-18T12:28:21.599Z,23.10
2018-04-18T12:30:49.086Z,23.10
2018-04-18T12:33:17.327Z,23.10
2018-04-18T12:35:44.782Z,23.00
2018-04-18T12:38:12.244Z,23.10
2018-04-18T12:40:39.712Z,23.10
2018-04-18T12:43:07.157Z,23.00
2018-04-18T12:45:34.654Z,23.00
2018-04-18T12:48:02.126Z,23.00
2018-04-18T12:50:29.590Z,22.80
2018-04-18T12:52:57.063Z,23.00
2018-04-18T12:55:25.285Z,23.00
2018-04-18T12:57:52.763Z,23.00
2018-04-18T13:00:20.223Z,23.00
2018-04-18T13:02:47.691Z,23.00
2018-04-18T13:05:15.146Z,23.00
2018-04-18T13:07:42.623Z,23.00
2018-04-18T13:10:10.087Z,23.00
2018-04-18T13:12:37.573Z,23.00
2018-04-18T13:15:05.055Z,23.00
2018-04-18T13:17:33.285Z,23.00
2018-04-18T13:20:00.763Z,23.00
2018-04-18T13:22:28.237Z,23.00
2018-04-18T13:24:55.700Z,23.00
2018-04-18T13:27:23.175Z,23.00
2018-04-18T13:29:50.634Z,22.90
2018-04-18T13:32:18.112Z,22.90
2018-04-18T13:34:46.338Z,23.00
2018-04-18T13:37:13.806Z,23.00
2018-04-18T13:39:41.272Z,23.00
2018-04-18T13:42:08.743Z,23.00
2018-04-18T13:44:36.192Z,23.00
2018-04-18T13:47:03.663Z,23.00
2018-04-18T13:49:31.189Z,23.10
2018-04-18T13:51:59.414Z,23.10
2018-04-18T13:54:26.892Z,23.00
2018-04-18T13:56:54.355Z,23.10
2018-04-18T13:59:21.837Z,23.10
2018-04-18T14:01:49.309Z,23.10
2018-04-18T14:04:16.767Z,23.10
2018-04-18T14:06:45.025Z,23.10
2018-04-18T14:09:12.493Z,23.10
2018-04-18T14:11:39.999Z,23.10
2018-04-18T14:14:08.235Z,23.20
2018-04-18T14:16:35.701Z,23.20
2018-04-18T14:19:03.187Z,23.20
2018-04-18T14:21:31.425Z,23.20
2018-04-18T14:23:58.966Z,23.20
2018-04-18T14:26:26.417Z,23.20
2018-04-18T14:28:53.876Z,23.10
2018-04-18T14:31:22.119Z,23.10
2018-04-18T14:33:49.594Z,23.10
2018-04-18T14:36:17.082Z,23.10
2018-04-18T14:38:45.308Z,23.20
2018-04-18T14:41:13.538Z,23.10
2018-04-18T14:43:41.775Z,23.10
2018-04-18T14:46:09.247Z,23.10
2018-04-18T14:48:36.729Z,23.10
2018-04-18T14:51:04.198Z,23.20
2018-04-18T14:53:31.700Z,23.20
2018-04-18T14:55:59.120Z,23.10
2018-04-18T14:58:26.589Z,23.20
2018-04-18T15:00:54.084Z,23.20
2018-04-18T15:03:21.546Z,23.20
2018-04-18T15:05:49.008Z,23.20
2018-04-18T15:08:17.235Z,23.20
2018-04-18T15:10:44.718Z,23.20
2018-04-18T15:13:12.181Z,23.20
2018-04-18T15:15:39.637Z,23.20
2018-04-18T15:18:07.122Z,23.20
2018-04-18T15:20:35.349Z,23.20
2018-04-18T15:23:02.833Z,23.20
2018-04-18T15:25:30.295Z,23.20
2018-04-18T15:27:57.785Z,23.20
2018-04-18T15:30:25.246Z,23.20
2018-04-18T15:32:52.718Z,23.20
2018-04-18T15:35:20.214Z,23.20
2018-04-18T15:37:47.679Z,23.20
2018-04-18T15:40:15.146Z,23.20
2018-04-18T15:42:42.611Z,23.20
2018-04-18T15:45:10.089Z,23.20
2018-04-18T15:47:37.553Z,23.20
2018-04-18T15:50:05.028Z,23.10
2018-04-18T15:52:32.511Z,23.10
2018-04-18T15:54:59.977Z,23.10
2018-04-18T15:57:27.437Z,23.10
2018-04-18T15:59:54.906Z,23.10
2018-04-18T16:02:22.374Z,23.10
2018-04-18T16:04:49.839Z,23.10
2018-04-18T16:07:17.302Z,23.10
2018-04-18T16:09:44.788Z,23.10
2018-04-18T16:12:13.019Z,23.10
2018-04-18T16:14:40.491Z,23.10
2018-04-18T16:17:08.717Z,23.00
2018-04-18T16:19:36.944Z,23.00
2018-04-18T16:22:04.409Z,23.00
2018-04-18T16:24:31.885Z,23.00
2018-04-18T16:26:59.343Z,23.00
2018-04-18T16:29:38.777Z,23.00
2018-04-18T16:32:06.249Z,23.00
2018-04-18T16:34:33.725Z,22.90
2018-04-18T16:37:01.235Z,22.90
2018-04-18T16:39:28.696Z,22.80
2018-04-18T16:41:56.165Z,22.90
2018-04-18T16:44:23.637Z,22.90
2018-04-18T16:46:51.107Z,22.80
2018-04-18T16:49:18.577Z,22.80
2018-04-18T16:51:46.056Z,22.80
2018-04-18T16:54:13.539Z,22.80
2018-04-18T16:56:41.007Z,22.80
2018-04-18T16:59:08.478Z,22.70
2018-04-18T17:01:36.738Z,22.70
2018-04-18T17:04:04.208Z,22.70
2018-04-18T17:06:31.685Z,22.70
2018-04-18T17:08:59.926Z,22.70
2018-04-18T17:11:28.196Z,22.80
2018-04-18T17:13:55.665Z,22.80
2018-04-18T17:16:23.131Z,22.90
2018-04-18T17:18:50.598Z,23.10
2018-04-18T17:21:18.842Z,23.60
2018-04-18T17:23:46.296Z,23.60
2018-04-18T17:26:13.762Z,23.80
2018-04-18T17:28:41.988Z,24.10
2018-04-18T17:31:09.456Z,24.10
2018-04-18T17:33:36.951Z,24.20
2018-04-18T17:36:05.207Z,24.30
2018-04-18T17:38:32.683Z,24.30
2018-04-18T17:41:00.168Z,24.20
2018-04-18T17:43:28.426Z,23.80
2018-04-18T17:45:55.905Z,23.80
2018-04-18T17:48:23.377Z,23.50
2018-04-18T17:50:51.646Z,22.80
2018-04-18T17:53:19.170Z,22.80
2018-04-18T17:55:46.799Z,22.50
2018-04-18T17:58:15.022Z,22.10
2018-04-18T18:00:42.483Z,22.10
2018-04-18T18:03:09.955Z,21.90
2018-04-18T18:05:37.426Z,21.80
2018-04-18T18:08:05.688Z,21.40
2018-04-18T18:10:33.254Z,21.40
2018-04-18T18:13:01.540Z,21.10
2018-04-18T18:15:29.001Z,21.10
2018-04-18T18:17:56.510Z,20.90
2018-04-18T18:20:23.999Z,20.70
2018-04-18T18:22:52.231Z,20.40
2018-04-18T18:25:19.747Z,20.40
2018-04-18T18:27:47.931Z,20.10
2018-04-18T18:30:15.397Z,20.10
2018-04-18T18:32:42.870Z,19.90
2018-04-18T18:35:10.343Z,19.80
2018-04-18T18:37:37.836Z,19.70
2018-04-18T18:40:05.335Z,19.60
2018-04-18T18:42:33.564Z,19.40
2018-04-18T18:45:01.044Z,19.40
2018-04-18T18:47:28.532Z,19.40
2018-04-18T18:49:56.808Z,19.20
2018-04-18T18:52:24.301Z,19.20
2018-04-18T18:54:51.774Z,19.20
2018-04-18T18:57:19.248Z,19.10
2018-04-18T18:59:46.732Z,19.00
2018-04-18T19:02:14.225Z,18.90
2018-04-18T19:04:41.718Z,18.80
2018-04-18T19:07:09.205Z,18.80
2018-04-18T19:09:36.725Z,18.70
2018-04-18T19:12:04.985Z,18.70
2018-04-18T19:14:32.477Z,18.60
2018-04-18T19:17:00.735Z,18.50
2018-04-18T19:19:28.243Z,18.50
2018-04-18T19:21:55.737Z,18.50
2018-04-18T19:24:23.243Z,18.40
2018-04-18T19:26:50.809Z,18.30
2018-04-18T19:29:19.079Z,18.20
2018-04-18T19:31:46.570Z,18.20
2018-04-18T19:34:14.827Z,18.20
2018-04-18T19:36:42.297Z,18.10
2018-04-18T19:39:09.773Z,18.10
2018-04-18T19:41:38.030Z,18.10
2018-04-18T19:44:05.515Z,18.00
2018-04-18T19:46:33.765Z,18.00
2018-04-18T19:49:02.276Z,18.00
2018-04-18T19:51:29.777Z,18.00
2018-04-18T19:53:57.265Z,17.90
2018-04-18T19:56:24.735Z,17.90
2018-04-18T19:58:52.237Z,17.90
2018-04-18T20:01:20.485Z,17.70
2018-04-18T20:03:47.956Z,17.70
2018-04-18T20:06:15.449Z,17.70
2018-04-18T20:08:43.689Z,17.50
2018-04-18T20:11:11.930Z,17.50
2018-04-18T20:13:39.403Z,17.40
2018-04-18T20:16:06.868Z,17.40
2018-04-18T20:18:34.347Z,17.40
2018-04-18T20:21:01.841Z,17.40
2018-04-18T20:23:29.305Z,17.40
2018-04-18T20:25:56.789Z,17.30
2018-04-18T20:28:24.279Z,17.20
2018-04-18T20:30:51.745Z,17.20
2018-04-18T20:33:19.207Z,17.20
2018-04-18T20:35:46.685Z,17.20
2018-04-18T20:38:14.175Z,17.10
2018-04-18T20:40:41.633Z,17.00
2018-04-18T20:43:09.116Z,17.00
2018-04-18T20:45:36.588Z,16.80
2018-04-18T20:48:04.037Z,16.80
2018-04-18T20:50:31.519Z,16.70
2018-04-18T20:52:58.988Z,16.70
2018-04-18T20:55:26.463Z,16.60
2018-04-18T20:57:54.692Z,16.50
2018-04-18T21:00:22.148Z,16.60
2018-04-18T21:02:49.615Z,16.50
2018-04-18T21:05:17.124Z,16.60
2018-04-18T21:07:44.567Z,16.50
2018-04-18T21:10:12.029Z,16.50
2018-04-18T21:12:39.505Z,16.50
2018-04-18T21:15:06.968Z,16.50
2018-04-18T21:17:34.438Z,16.50
2018-04-18T21:20:01.897Z,16.40
2018-04-18T21:22:29.356Z,16.30
2018-04-18T21:24:56.854Z,16.20
2018-04-18T21:27:25.076Z,16.10
2018-04-18T21:29:52.537Z,16.10
2018-04-18T21:32:20.009Z,16.10
2018-04-18T21:34:47.465Z,16.10
2018-04-18T21:37:14.925Z,16.10
2018-04-18T21:39:42.406Z,16.10
2018-04-18T21:42:09.904Z,16.00
2018-04-18T21:44:38.127Z,15.90
2018-04-18T21:47:05.587Z,15.90
2018-04-18T21:49:33.041Z,15.90
2018-04-18T21:52:00.502Z,15.90
2018-04-18T21:54:27.967Z,15.80
2018-04-18T21:56:55.433Z,15.80
2018-04-18T21:59:22.895Z,15.70
2018-04-18T22:01:50.353Z,15.70
2018-04-18T22:04:17.821Z,15.70
2018-04-18T22:06:45.292Z,15.70
2018-04-18T22:09:12.770Z,15.70
2018-04-18T22:11:40.243Z,15.70
2018-04-18T22:14:07.710Z,15.70
2018-04-18T22:16:35.932Z,15.60
2018-04-18T22:19:04.178Z,15.60
2018-04-18T22:21:31.657Z,15.50
2018-04-18T22:23:59.104Z,15.50
2018-04-18T22:26:26.590Z,15.50
2018-04-18T22:28:54.056Z,15.50
2018-04-18T22:31:22.295Z,15.50
2018-04-18T22:33:49.771Z,15.50
2018-04-18T22:36:17.241Z,15.50
2018-04-18T22:38:44.705Z,15.40
2018-04-18T22:41:12.180Z,15.40
2018-04-18T22:43:39.663Z,15.40
2018-04-18T22:46:07.885Z,15.30
2018-04-18T22:48:35.345Z,15.30
2018-04-18T22:51:02.807Z,15.30
2018-04-18T22:53:30.273Z,15.20
2018-04-18T22:55:57.726Z,15.10
2018-04-18T22:58:25.193Z,15.00
2018-04-18T23:00:52.660Z,14.90
2018-04-18T23:03:20.122Z,14.80
2018-04-18T23:05:47.574Z,14.70
2018-04-18T23:08:15.033Z,14.70
2018-04-18T23:10:42.529Z,14.60
2018-04-18T23:13:09.994Z,14.50
2018-04-18T23:15:37.453Z,14.50
2018-04-18T23:18:04.940Z,14.50
2018-04-18T23:20:32.397Z,14.50
2018-04-18T23:22:59.865Z,14.50
2018-04-18T23:25:27.322Z,14.50
2018-04-18T23:27:54.800Z,14.50
2018-04-18T23:30:22.248Z,14.50
2018-04-18T23:32:49.707Z,14.50
2018-04-18T23:35:17.172Z,14.50
2018-04-18T23:37:44.631Z,14.50
2018-04-18T23:40:12.109Z,14.60
2018-04-18T23:42:39.576Z,14.60
2018-04-18T23:45:07.030Z,14.60
2018-04-18T23:47:34.494Z,14.60
2018-04-18T23:50:01.961Z,14.60
2018-04-18T23:52:29.451Z,14.60
2018-04-18T23:54:57.682Z,14.60
2018-04-18T23:57:25.133Z,14.50
2018-04-18T23:59:52.591Z,14.60
